createdAt,value
2017-10-30T00:01:04.883Z,91.20
2017-10-30T00:03:32.492Z,91.20
2017-10-30T00:06:00.037Z,91.20
2017-10-30T00:08:27.594Z,91.30
2017-10-30T00:10:56.055Z,91.30
2017-10-30T00:13:24.371Z,91.30
2017-10-30T00:15:52.690Z,91.70
2017-10-30T00:18:20.566Z,91.40
2017-10-30T00:20:48.112Z,91.40
2017-10-30T00:23:16.425Z,91.30
2017-10-30T00:25:44.115Z,91.70
2017-10-30T00:28:12.580Z,91.40
2017-10-30T00:30:40.135Z,91.30
2017-10-30T00:33:08.532Z,91.20
2017-10-30T00:35:36.084Z,91.20
2017-10-30T00:38:04.401Z,91.20
2017-10-30T00:40:31.992Z,91.20
2017-10-30T00:42:59.540Z,91.30
2017-10-30T00:45:27.093Z,91.40
2017-10-30T00:47:55.448Z,91.50
2017-10-30T00:50:23.002Z,91.40
2017-10-30T00:52:50.551Z,91.40
2017-10-30T00:55:18.355Z,91.40
2017-10-30T00:57:45.896Z,91.40
2017-10-30T01:00:13.450Z,91.40
2017-10-30T01:02:41.804Z,91.20
2017-10-30T01:05:09.351Z,91.20
2017-10-30T01:07:36.905Z,91.20
2017-10-30T01:10:04.492Z,91.20
2017-10-30T01:12:32.048Z,91.30
2017-10-30T01:14:59.607Z,91.30
2017-10-30T01:17:27.195Z,91.20
2017-10-30T01:19:54.740Z,91.20
2017-10-30T01:22:22.300Z,91.20
2017-10-30T01:24:50.672Z,91.20
2017-10-30T01:27:18.211Z,91.20
2017-10-30T01:29:45.767Z,91.30
2017-10-30T01:32:13.372Z,91.30
2017-10-30T01:34:40.922Z,91.30
2017-10-30T01:37:08.472Z,91.20
2017-10-30T01:39:36.279Z,91.20
2017-10-30T01:42:03.827Z,91.10
2017-10-30T01:44:31.381Z,91.10
2017-10-30T01:46:59.078Z,91.00
2017-10-30T01:49:26.700Z,90.90
2017-10-30T01:51:54.251Z,90.90
2017-10-30T01:54:21.883Z,90.90
2017-10-30T01:56:49.428Z,90.60
2017-10-30T01:59:16.972Z,90.60
2017-10-30T02:01:44.557Z,90.40
2017-10-30T02:04:12.116Z,90.20
2017-10-30T02:06:39.666Z,90.30
2017-10-30T02:09:07.266Z,90.20
2017-10-30T02:11:34.811Z,89.80
2017-10-30T02:14:02.359Z,89.70
2017-10-30T02:16:29.964Z,89.40
2017-10-30T02:18:57.605Z,89.50
2017-10-30T02:21:25.361Z,89.60
2017-10-30T02:23:52.960Z,89.60
2017-10-30T02:26:20.504Z,90.10
2017-10-30T02:28:48.360Z,89.30
2017-10-30T02:31:16.920Z,89.40
2017-10-30T02:33:44.494Z,89.30
2017-10-30T02:36:12.977Z,89.60
2017-10-30T02:38:40.560Z,89.30
2017-10-30T02:41:08.331Z,89.20
2017-10-30T02:43:35.900Z,88.80
2017-10-30T02:46:03.636Z,89.00
2017-10-30T02:48:31.184Z,89.10
2017-10-30T02:50:58.748Z,89.20
2017-10-30T02:53:26.340Z,89.20
2017-10-30T02:55:54.679Z,89.20
2017-10-30T02:58:22.216Z,89.20
2017-10-30T03:00:49.816Z,89.40
2017-10-30T03:03:17.362Z,89.40
2017-10-30T03:05:44.911Z,89.20
2017-10-30T03:08:13.275Z,89.10
2017-10-30T03:10:40.817Z,89.10
2017-10-30T03:13:08.364Z,89.20
2017-10-30T03:15:36.061Z,89.20
2017-10-30T03:18:03.612Z,89.30
2017-10-30T03:20:31.169Z,89.50
2017-10-30T03:22:58.764Z,89.40
2017-10-30T03:25:27.043Z,89.70
2017-10-30T03:27:54.588Z,89.40
2017-10-30T03:30:22.958Z,89.30
2017-10-30T03:32:50.511Z,89.40
2017-10-30T03:35:18.096Z,89.50
2017-10-30T03:37:45.682Z,89.40
2017-10-30T03:40:13.224Z,89.50
2017-10-30T03:42:40.771Z,89.30
2017-10-30T03:45:08.424Z,89.60
2017-10-30T03:47:35.971Z,89.20
2017-10-30T03:50:04.280Z,89.10
2017-10-30T03:52:31.867Z,89.00
2017-10-30T03:54:59.411Z,88.70
2017-10-30T03:57:27.721Z,89.10
2017-10-30T03:59:56.045Z,89.10
2017-10-30T04:02:23.637Z,89.10
2017-10-30T04:04:51.180Z,89.00
2017-10-30T04:07:18.963Z,89.00
2017-10-30T04:09:46.505Z,89.20
2017-10-30T04:12:14.055Z,89.30
2017-10-30T04:14:43.115Z,89.00
2017-10-30T04:17:10.668Z,89.00
2017-10-30T04:19:38.220Z,89.20
2017-10-30T04:22:06.179Z,89.30
2017-10-30T04:24:33.759Z,89.50
2017-10-30T04:27:01.303Z,89.50
2017-10-30T04:29:28.935Z,89.50
2017-10-30T04:31:58.103Z,89.20
2017-10-30T04:34:25.712Z,89.30
2017-10-30T04:36:53.915Z,89.20
2017-10-30T04:39:21.525Z,89.40
2017-10-30T04:41:49.100Z,89.50
2017-10-30T04:44:17.472Z,89.40
2017-10-30T04:46:45.116Z,89.40
2017-10-30T04:49:12.660Z,89.10
2017-10-30T04:51:40.427Z,89.20
2017-10-30T04:54:08.115Z,89.20
2017-10-30T04:56:35.664Z,89.00
2017-10-30T04:59:04.035Z,88.80
2017-10-30T05:01:32.343Z,88.70
2017-10-30T05:04:00.647Z,88.50
2017-10-30T05:06:28.235Z,88.50
2017-10-30T05:08:55.785Z,88.50
2017-10-30T05:11:23.385Z,88.90
2017-10-30T05:13:51.011Z,88.70
2017-10-30T05:16:19.319Z,88.30
2017-10-30T05:18:46.872Z,88.20
2017-10-30T05:21:15.219Z,88.30
2017-10-30T05:23:42.778Z,88.30
2017-10-30T05:26:10.336Z,88.10
2017-10-30T05:28:37.927Z,88.20
2017-10-30T05:31:05.471Z,88.10
2017-10-30T05:33:33.017Z,88.00
2017-10-30T05:36:01.362Z,88.00
2017-10-30T05:38:28.908Z,87.80
2017-10-30T05:40:56.485Z,87.80
2017-10-30T05:43:24.080Z,87.80
2017-10-30T05:45:51.620Z,87.70
2017-10-30T05:48:19.170Z,87.90
2017-10-30T05:50:47.708Z,87.80
2017-10-30T05:53:15.256Z,87.80
2017-10-30T05:55:42.799Z,88.70
2017-10-30T05:58:11.160Z,87.40
2017-10-30T06:00:38.703Z,87.40
2017-10-30T06:03:06.246Z,87.20
2017-10-30T06:05:33.941Z,87.20
2017-10-30T06:08:01.503Z,87.20
2017-10-30T06:10:29.048Z,87.10
2017-10-30T06:12:57.591Z,87.20
2017-10-30T06:15:25.134Z,87.10
2017-10-30T06:17:52.763Z,86.60
2017-10-30T06:20:20.516Z,86.80
2017-10-30T06:22:48.057Z,86.90
2017-10-30T06:25:15.600Z,86.90
2017-10-30T06:27:43.964Z,86.90
2017-10-30T06:30:11.516Z,86.90
2017-10-30T06:32:39.068Z,86.90
2017-10-30T06:35:06.660Z,86.70
2017-10-30T06:37:34.208Z,86.80
2017-10-30T06:40:01.752Z,87.10
2017-10-30T06:42:30.399Z,91.70
2017-10-30T06:44:57.954Z,91.70
2017-10-30T06:47:25.504Z,88.50
2017-10-30T06:49:53.216Z,85.40
2017-10-30T06:52:20.765Z,84.00
2017-10-30T06:54:48.348Z,83.90
2017-10-30T06:57:16.124Z,83.50
2017-10-30T06:59:43.674Z,83.30
2017-10-30T07:02:32.934Z,83.60
2017-10-30T07:05:00.488Z,83.40
2017-10-30T07:07:28.040Z,83.30
2017-10-30T07:09:55.633Z,83.80
2017-10-30T07:12:23.957Z,84.60
2017-10-30T07:14:51.503Z,84.60
2017-10-30T07:17:19.948Z,83.10
2017-10-30T07:19:47.505Z,83.00
2017-10-30T07:22:15.055Z,82.80
2017-10-30T07:24:42.639Z,81.70
2017-10-30T07:27:10.183Z,82.10
2017-10-30T07:29:38.493Z,81.50
2017-10-30T07:32:06.162Z,81.50
2017-10-30T07:34:33.700Z,81.50
2017-10-30T07:37:01.256Z,81.50
2017-10-30T07:39:28.852Z,81.40
2017-10-30T07:41:57.169Z,82.00
2017-10-30T07:44:24.736Z,82.00
2017-10-30T07:46:52.331Z,81.90
2017-10-30T07:49:19.889Z,82.80
2017-10-30T07:51:47.431Z,81.00
2017-10-30T07:54:15.979Z,79.20
2017-10-30T07:56:43.533Z,79.20
2017-10-30T07:59:11.080Z,79.20
2017-10-30T08:01:39.432Z,77.10
2017-10-30T08:04:07.004Z,77.10
2017-10-30T08:06:36.059Z,73.20
2017-10-30T08:09:03.763Z,73.10
2017-10-30T08:11:31.304Z,71.30
2017-10-30T08:13:58.848Z,69.40
2017-10-30T08:16:27.412Z,67.30
2017-10-30T08:18:56.500Z,63.00
2017-10-30T08:21:24.052Z,63.00
2017-10-30T08:23:51.781Z,59.80
2017-10-30T08:26:19.332Z,58.80
2017-10-30T08:28:46.895Z,57.70
2017-10-30T08:31:14.497Z,56.30
2017-10-30T08:33:42.048Z,55.00
2017-10-30T08:36:09.600Z,54.10
2017-10-30T08:38:37.390Z,53.80
2017-10-30T08:41:04.940Z,52.30
2017-10-30T08:43:32.491Z,51.30
2017-10-30T08:46:00.094Z,50.00
2017-10-30T08:48:27.641Z,50.00
2017-10-30T08:50:56.099Z,49.70
2017-10-30T08:53:24.473Z,48.50
2017-10-30T08:55:52.032Z,48.50
2017-10-30T08:58:19.588Z,47.70
2017-10-30T09:00:47.371Z,47.60
2017-10-30T09:03:15.730Z,46.40
2017-10-30T09:05:43.293Z,46.40
2017-10-30T09:08:11.016Z,46.70
2017-10-30T09:10:38.820Z,46.90
2017-10-30T09:13:07.145Z,45.10
2017-10-30T09:15:34.853Z,45.10
2017-10-30T09:18:02.411Z,46.20
2017-10-30T09:20:29.965Z,45.10
2017-10-30T09:22:57.577Z,43.40
2017-10-30T09:25:25.136Z,43.00
2017-10-30T09:27:52.704Z,43.40
2017-10-30T09:30:20.408Z,43.40
2017-10-30T09:32:48.098Z,43.20
2017-10-30T09:35:15.665Z,42.90
2017-10-30T09:37:44.040Z,44.50
2017-10-30T09:40:11.599Z,44.50
2017-10-30T09:42:39.156Z,42.20
2017-10-30T09:45:06.954Z,41.40
2017-10-30T09:47:35.301Z,39.90
2017-10-30T09:50:02.847Z,39.90
2017-10-30T09:52:30.571Z,40.70
2017-10-30T09:54:58.119Z,40.50
2017-10-30T09:57:25.680Z,41.30
2017-10-30T09:59:53.500Z,40.70
2017-10-30T10:02:21.064Z,40.40
2017-10-30T10:04:48.637Z,40.30
2017-10-30T10:07:16.263Z,40.90
2017-10-30T10:09:43.829Z,40.00
2017-10-30T10:12:11.400Z,40.50
2017-10-30T10:14:39.012Z,40.00
2017-10-30T10:17:06.569Z,39.90
2017-10-30T10:19:34.126Z,40.60
2017-10-30T10:22:01.868Z,41.60
2017-10-30T10:24:30.196Z,41.50
2017-10-30T10:26:57.751Z,41.50
2017-10-30T10:29:26.331Z,41.30
2017-10-30T10:31:54.651Z,40.00
2017-10-30T10:34:22.205Z,40.00
2017-10-30T10:36:49.940Z,40.00
2017-10-30T10:39:17.503Z,40.40
2017-10-30T10:41:45.181Z,40.60
2017-10-30T10:44:12.792Z,40.30
2017-10-30T10:46:41.116Z,41.50
2017-10-30T10:49:08.672Z,41.40
2017-10-30T10:51:36.391Z,41.20
2017-10-30T10:54:03.960Z,41.10
2017-10-30T10:56:31.575Z,41.10
2017-10-30T10:58:59.927Z,41.70
2017-10-30T11:01:27.479Z,41.70
2017-10-30T11:03:55.039Z,41.70
2017-10-30T11:06:22.636Z,42.50
2017-10-30T11:08:50.187Z,41.50
2017-10-30T11:11:17.753Z,42.20
2017-10-30T11:13:45.351Z,41.80
2017-10-30T11:16:12.911Z,42.30
2017-10-30T11:18:40.473Z,42.00
2017-10-30T11:21:08.082Z,42.70
2017-10-30T11:23:35.703Z,42.50
2017-10-30T11:26:03.264Z,43.40
2017-10-30T11:28:30.871Z,42.90
2017-10-30T11:30:58.431Z,42.10
2017-10-30T11:33:26.108Z,42.70
2017-10-30T11:35:53.767Z,42.50
2017-10-30T11:38:21.329Z,41.50
2017-10-30T11:40:48.886Z,42.30
2017-10-30T11:43:16.628Z,42.30
2017-10-30T11:45:44.187Z,43.50
2017-10-30T11:48:11.760Z,43.50
2017-10-30T11:50:39.528Z,43.50
2017-10-30T11:53:07.088Z,43.90
2017-10-30T11:55:34.648Z,44.80
2017-10-30T11:58:02.447Z,45.10
2017-10-30T12:00:30.006Z,46.30
2017-10-30T12:02:57.569Z,47.50
2017-10-30T12:05:25.178Z,48.00
2017-10-30T12:07:52.733Z,48.20
2017-10-30T12:10:20.293Z,49.40
2017-10-30T12:12:47.915Z,48.50
2017-10-30T12:15:16.236Z,49.50
2017-10-30T12:17:44.561Z,49.60
2017-10-30T12:20:12.160Z,49.50
2017-10-30T12:22:40.476Z,50.00
2017-10-30T12:25:08.058Z,49.90
2017-10-30T12:27:35.756Z,49.50
2017-10-30T12:30:03.313Z,50.30
2017-10-30T12:32:30.876Z,50.30
2017-10-30T12:34:58.493Z,50.50
2017-10-30T12:37:26.044Z,50.90
2017-10-30T12:39:53.600Z,51.20
2017-10-30T12:42:21.296Z,52.60
2017-10-30T12:44:48.844Z,52.20
2017-10-30T12:47:16.412Z,51.60
2017-10-30T12:49:44.007Z,51.80
2017-10-30T12:52:11.560Z,51.50
2017-10-30T12:54:39.111Z,52.10
2017-10-30T12:57:06.796Z,52.80
2017-10-30T12:59:34.351Z,52.50
2017-10-30T13:02:02.061Z,52.10
2017-10-30T13:04:29.852Z,52.70
2017-10-30T13:06:57.401Z,53.10
2017-10-30T13:09:24.955Z,53.80
2017-10-30T13:11:52.596Z,54.00
2017-10-30T13:14:20.924Z,53.10
2017-10-30T13:16:48.476Z,53.00
2017-10-30T13:19:16.194Z,53.50
2017-10-30T13:21:43.746Z,53.40
2017-10-30T13:24:11.303Z,54.10
2017-10-30T13:26:38.900Z,53.10
2017-10-30T13:29:06.451Z,54.00
2017-10-30T13:31:34.033Z,54.80
2017-10-30T13:34:01.640Z,55.30
2017-10-30T13:36:29.199Z,55.80
2017-10-30T13:38:56.751Z,55.90
2017-10-30T13:41:24.528Z,56.60
2017-10-30T13:43:52.084Z,56.80
2017-10-30T13:46:19.631Z,57.00
2017-10-30T13:48:48.136Z,57.20
2017-10-30T13:51:15.687Z,57.20
2017-10-30T13:53:44.008Z,58.00
2017-10-30T13:56:12.376Z,58.30
2017-10-30T13:58:40.700Z,58.50
2017-10-30T14:01:08.253Z,58.50
2017-10-30T14:03:35.964Z,58.80
2017-10-30T14:06:03.523Z,59.30
2017-10-30T14:08:31.076Z,60.00
2017-10-30T14:10:58.780Z,60.20
2017-10-30T14:13:26.328Z,61.00
2017-10-30T14:15:53.882Z,61.80
2017-10-30T14:18:21.704Z,61.90
2017-10-30T14:20:49.264Z,62.00
2017-10-30T14:23:16.827Z,62.30
2017-10-30T14:25:44.472Z,62.70
2017-10-30T14:28:12.024Z,63.00
2017-10-30T14:30:40.343Z,63.90
2017-10-30T14:33:08.158Z,63.80
2017-10-30T14:35:35.775Z,63.80
2017-10-30T14:38:03.327Z,63.70
2017-10-30T14:40:31.691Z,64.40
2017-10-30T14:42:59.259Z,64.40
2017-10-30T14:45:26.818Z,64.70
2017-10-30T14:47:54.595Z,65.00
2017-10-30T14:50:22.147Z,65.50
2017-10-30T14:52:49.803Z,65.10
2017-10-30T14:55:17.440Z,65.40
2017-10-30T14:57:45.409Z,65.70
2017-10-30T15:00:12.975Z,66.00
2017-10-30T15:02:40.571Z,66.10
2017-10-30T15:05:08.152Z,66.80
2017-10-30T15:07:36.472Z,66.70
2017-10-30T15:10:04.367Z,67.70
2017-10-30T15:12:31.912Z,67.80
2017-10-30T15:14:59.471Z,68.20
2017-10-30T15:17:27.839Z,68.30
2017-10-30T15:19:56.159Z,68.10
2017-10-30T15:22:23.718Z,68.10
2017-10-30T15:24:52.067Z,69.10
2017-10-30T15:27:19.612Z,69.10
2017-10-30T15:29:47.152Z,69.50
2017-10-30T15:32:16.099Z,70.70
2017-10-30T15:34:43.639Z,70.70
2017-10-30T15:37:11.187Z,71.30
2017-10-30T15:39:40.055Z,72.60
2017-10-30T15:42:07.603Z,72.60
2017-10-30T15:44:35.147Z,73.40
2017-10-30T15:47:03.559Z,75.00
2017-10-30T15:49:31.179Z,74.90
2017-10-30T15:51:58.725Z,76.00
2017-10-30T15:54:26.511Z,76.30
2017-10-30T15:56:54.083Z,76.90
2017-10-30T15:59:22.415Z,77.30
2017-10-30T16:01:50.776Z,77.80
2017-10-30T16:04:19.836Z,78.20
2017-10-30T16:06:47.407Z,78.10
2017-10-30T16:09:14.992Z,78.50
2017-10-30T16:11:42.600Z,79.00
2017-10-30T16:14:10.147Z,79.40
2017-10-30T16:16:37.736Z,79.80
2017-10-30T16:19:05.283Z,80.00
2017-10-30T16:21:32.832Z,80.20
2017-10-30T16:24:00.438Z,80.10
2017-10-30T16:26:27.991Z,80.30
2017-10-30T16:28:55.536Z,80.40
2017-10-30T16:31:24.061Z,80.70
2017-10-30T16:33:51.625Z,80.60
2017-10-30T16:36:19.180Z,80.90
2017-10-30T16:38:47.152Z,81.00
2017-10-30T16:41:15.461Z,80.90
2017-10-30T16:43:43.028Z,80.90
2017-10-30T16:46:10.620Z,81.20
2017-10-30T16:48:38.274Z,81.50
2017-10-30T16:51:05.825Z,81.80
2017-10-30T16:53:34.184Z,89.40
2017-10-30T16:56:01.743Z,89.40
2017-10-30T16:58:29.354Z,87.50
2017-10-30T17:00:57.909Z,86.60
2017-10-30T17:03:25.452Z,86.60
2017-10-30T17:05:52.995Z,87.60
2017-10-30T17:08:20.606Z,81.80
2017-10-30T17:10:48.400Z,81.70
2017-10-30T17:13:15.955Z,81.10
2017-10-30T17:15:43.744Z,82.30
2017-10-30T17:18:11.296Z,81.70
2017-10-30T17:20:38.866Z,81.90
2017-10-30T17:23:06.879Z,82.10
2017-10-30T17:25:34.434Z,82.40
2017-10-30T17:28:01.985Z,82.40
2017-10-30T17:30:29.608Z,82.10
2017-10-30T17:32:57.167Z,82.30
2017-10-30T17:35:24.764Z,82.20
2017-10-30T17:37:53.263Z,82.40
2017-10-30T17:40:21.650Z,82.60
2017-10-30T17:42:49.959Z,83.00
2017-10-30T17:45:17.543Z,82.90
2017-10-30T17:47:45.112Z,82.70
2017-10-30T17:50:12.656Z,82.90
2017-10-30T17:52:41.001Z,83.10
2017-10-30T17:55:08.547Z,83.10
2017-10-30T17:57:36.101Z,83.50
2017-10-30T18:00:03.801Z,83.90
2017-10-30T18:02:31.347Z,84.30
2017-10-30T18:04:58.891Z,83.90
2017-10-30T18:07:26.501Z,84.30
2017-10-30T18:09:54.059Z,84.80
2017-10-30T18:12:22.364Z,84.80
2017-10-30T18:14:50.164Z,84.70
2017-10-30T18:17:17.709Z,84.90
2017-10-30T18:19:45.357Z,85.10
2017-10-30T18:22:19.304Z,85.60
2017-10-30T18:24:46.857Z,85.60
2017-10-30T18:27:15.187Z,85.90
2017-10-30T18:29:43.560Z,85.90
2017-10-30T18:32:11.116Z,86.20
2017-10-30T18:34:38.677Z,86.50
2017-10-30T18:37:07.032Z,87.30
2017-10-30T18:39:36.107Z,88.00
2017-10-30T18:42:03.687Z,88.00
2017-10-30T18:44:31.427Z,88.60
2017-10-30T18:46:59.004Z,89.00
2017-10-30T18:49:26.786Z,89.30
2017-10-30T18:51:54.378Z,89.70
2017-10-30T18:54:21.951Z,89.90
2017-10-30T18:56:49.502Z,90.10
2017-10-30T18:59:17.103Z,90.10
2017-10-30T19:01:44.651Z,90.10
2017-10-30T19:04:12.217Z,90.00
2017-10-30T19:06:39.815Z,90.10
2017-10-30T19:09:07.403Z,90.10
2017-10-30T19:11:34.945Z,90.20
2017-10-30T19:14:02.544Z,90.00
2017-10-30T19:16:30.097Z,90.10
2017-10-30T19:18:57.644Z,90.00
2017-10-30T19:21:25.475Z,90.00
2017-10-30T19:23:53.810Z,90.10
2017-10-30T19:26:21.376Z,90.10
2017-10-30T19:28:49.063Z,89.70
2017-10-30T19:31:17.469Z,90.00
2017-10-30T19:33:45.232Z,90.10
2017-10-30T19:36:12.823Z,90.10
2017-10-30T19:38:40.367Z,90.10
2017-10-30T19:41:07.952Z,90.40
2017-10-30T19:43:35.539Z,90.30
2017-10-30T19:46:05.320Z,90.10
2017-10-30T19:48:33.818Z,90.50
2017-10-30T19:51:01.411Z,90.50
2017-10-30T19:53:28.956Z,90.50
2017-10-30T19:55:57.272Z,90.80
2017-10-30T19:58:24.864Z,90.80
2017-10-30T20:00:52.408Z,90.90
2017-10-30T20:03:19.968Z,91.00
2017-10-30T20:05:53.332Z,91.20
2017-10-30T20:11:38.817Z,91.20
2017-10-30T20:14:06.392Z,91.20
2017-10-30T20:16:35.263Z,91.50
2017-10-30T20:19:03.620Z,91.40
2017-10-30T20:21:34.244Z,91.40
2017-10-30T20:24:01.856Z,91.40
2017-10-30T20:26:30.356Z,91.20
2017-10-30T20:28:59.065Z,91.20
2017-10-30T20:31:26.629Z,91.20
2017-10-30T20:33:55.250Z,91.20
2017-10-30T20:36:22.803Z,91.20
2017-10-30T20:38:51.152Z,91.00
2017-10-30T20:41:18.760Z,91.00
2017-10-30T20:43:46.315Z,91.10
2017-10-30T20:46:14.627Z,91.10
2017-10-30T20:48:42.234Z,91.00
2017-10-30T20:51:09.787Z,91.00
2017-10-30T20:53:37.336Z,90.90
2017-10-30T20:56:04.932Z,90.80
2017-10-30T20:58:32.479Z,90.90
2017-10-30T21:01:00.024Z,91.00
2017-10-30T21:03:28.596Z,90.80
2017-10-30T21:05:56.144Z,90.70
2017-10-30T21:08:23.700Z,90.70
2017-10-30T21:10:52.044Z,90.60
2017-10-30T21:13:19.596Z,90.60
2017-10-30T21:15:47.140Z,90.50
2017-10-30T21:18:15.058Z,90.50
2017-10-30T21:20:43.396Z,90.50
2017-10-30T21:23:10.948Z,90.50
2017-10-30T21:25:39.400Z,90.40
2017-10-30T21:28:07.720Z,90.50
2017-10-30T21:30:36.048Z,90.60
2017-10-30T21:33:03.650Z,90.50
2017-10-30T21:35:31.208Z,90.60
2017-10-30T21:37:58.752Z,90.70
2017-10-30T21:40:26.344Z,90.60
2017-10-30T21:42:54.788Z,90.60
2017-10-30T21:45:23.109Z,90.80
2017-10-30T21:47:50.920Z,90.80
2017-10-30T21:50:18.561Z,91.10
2017-10-30T21:52:46.879Z,91.20
2017-10-30T21:55:14.475Z,91.10
2017-10-30T21:57:42.023Z,91.20
2017-10-30T22:00:09.575Z,91.60
2017-10-30T22:02:37.176Z,91.60
2017-10-30T22:05:04.764Z,91.70
2017-10-30T22:07:32.312Z,92.00
2017-10-30T22:09:59.908Z,92.00
2017-10-30T22:12:27.461Z,92.40
2017-10-30T22:14:55.047Z,92.70
2017-10-30T22:17:22.652Z,92.80
2017-10-30T22:19:50.200Z,93.00
2017-10-30T22:22:18.515Z,93.20
2017-10-30T22:24:46.200Z,93.20
2017-10-30T22:27:13.756Z,93.40
2017-10-30T22:29:41.295Z,93.50
2017-10-30T22:32:08.883Z,93.60
2017-10-30T22:34:37.204Z,93.90
2017-10-30T22:37:04.757Z,93.90
2017-10-30T22:39:32.462Z,94.20
2017-10-30T22:42:00.016Z,94.30
2017-10-30T22:44:27.566Z,94.40
2017-10-30T22:46:55.928Z,94.50
2017-10-30T22:49:23.538Z,94.40
2017-10-30T22:51:51.083Z,94.50
2017-10-30T22:54:19.451Z,94.70
2017-10-30T22:56:47.008Z,94.70
2017-10-30T22:59:14.560Z,94.80
2017-10-30T23:01:42.347Z,94.90
2017-10-30T23:04:09.900Z,95.10
2017-10-30T23:06:37.466Z,95.10
2017-10-30T23:09:05.167Z,95.10
2017-10-30T23:11:32.724Z,95.20
2017-10-30T23:14:00.264Z,95.20
2017-10-30T23:16:28.807Z,95.40
2017-10-30T23:18:56.352Z,95.40
2017-10-30T23:21:23.891Z,95.50
2017-10-30T23:23:52.383Z,95.60
2017-10-30T23:26:20.697Z,95.30
2017-10-30T23:28:48.239Z,95.50
2017-10-30T23:31:15.839Z,95.50
2017-10-30T23:33:43.384Z,95.60
2017-10-30T23:36:11.695Z,95.70
2017-10-30T23:38:39.283Z,95.60
2017-10-30T23:41:06.826Z,95.60
2017-10-30T23:43:35.136Z,95.90
2017-10-30T23:46:02.726Z,95.90
2017-10-30T23:48:30.281Z,95.80
2017-10-30T23:50:57.828Z,95.80
2017-10-30T23:53:26.382Z,95.80
2017-10-30T23:55:53.928Z,95.70
2017-10-30T23:58:21.468Z,95.70
